sensor_id;sensor_type;location;lat;lon;timestamp;temperature;humidity
40516;DHT22;26216;53.724;9.898;2022-08-04T00:01:43;24.40;76.80
40516;DHT22;26216;53.724;9.898;2022-08-04T00:06:59;24.30;76.40
40516;DHT22;26216;53.724;9.898;2022-08-04T00:12:11;24.30;76.80
40516;DHT22;26216;53.724;9.898;2022-08-04T00:14:48;24.30;76.40
40516;DHT22;26216;53.724;9.898;2022-08-04T00:17:19;24.30;77.30
40516;DHT22;26216;53.724;9.898;2022-08-04T00:19:47;24.20;77.10
40516;DHT22;26216;53.724;9.898;2022-08-04T00:22:15;24.20;77.30
40516;DHT22;26216;53.724;9.898;2022-08-04T00:24:42;24.20;77.30
40516;DHT22;26216;53.724;9.898;2022-08-04T00:27:09;24.20;77.20
40516;DHT22;26216;53.724;9.898;2022-08-04T00:29:37;24.20;77.30
40516;DHT22;26216;53.724;9.898;2022-08-04T00:32:06;24.10;77.40
40516;DHT22;26216;53.724;9.898;2022-08-04T00:34:33;24.10;77.80
40516;DHT22;26216;53.724;9.898;2022-08-04T00:36:59;24.10;78.00
40516;DHT22;26216;53.724;9.898;2022-08-04T00:39:26;24.10;77.90
40516;DHT22;26216;53.724;9.898;2022-08-04T00:42:43;24.00;78.50
40516;DHT22;26216;53.724;9.898;2022-08-04T00:45:13;24.00;79.50
40516;DHT22;26216;53.724;9.898;2022-08-04T00:50:44;24.00;80.20
40516;DHT22;26216;53.724;9.898;2022-08-04T00:53:30;24.00;80.00
40516;DHT22;26216;53.724;9.898;2022-08-04T00:59:20;23.90;81.00
40516;DHT22;26216;53.724;9.898;2022-08-04T01:04:40;23.80;81.00
40516;DHT22;26216;53.724;9.898;2022-08-04T01:12:48;23.80;81.40
40516;DHT22;26216;53.724;9.898;2022-08-04T01:15:30;23.80;81.90
40516;DHT22;26216;53.724;9.898;2022-08-04T01:20:34;23.70;81.80
40516;DHT22;26216;53.724;9.898;2022-08-04T01:29:14;23.70;82.40
40516;DHT22;26216;53.724;9.898;2022-08-04T01:34:17;23.60;82.00
40516;DHT22;26216;53.724;9.898;2022-08-04T01:37:02;23.70;81.30
40516;DHT22;26216;53.724;9.898;2022-08-04T01:39:37;23.60;81.70
40516;DHT22;26216;53.724;9.898;2022-08-04T01:42:11;23.60;81.40
40516;DHT22;26216;53.724;9.898;2022-08-04T01:44:39;23.60;81.30
40516;DHT22;26216;53.724;9.898;2022-08-04T01:47:06;23.60;81.20
40516;DHT22;26216;53.724;9.898;2022-08-04T01:49:33;23.50;81.10
40516;DHT22;26216;53.724;9.898;2022-08-04T01:52:01;23.50;81.10
40516;DHT22;26216;53.724;9.898;2022-08-04T01:54:29;23.50;81.10
40516;DHT22;26216;53.724;9.898;2022-08-04T01:56:56;23.50;81.10
40516;DHT22;26216;53.724;9.898;2022-08-04T01:59:23;23.50;81.20
40516;DHT22;26216;53.724;9.898;2022-08-04T02:01:49;23.50;81.10
40516;DHT22;26216;53.724;9.898;2022-08-04T02:04:18;23.50;81.30
40516;DHT22;26216;53.724;9.898;2022-08-04T02:15:46;23.40;81.80
40516;DHT22;26216;53.724;9.898;2022-08-04T02:18:26;23.30;81.90
40516;DHT22;26216;53.724;9.898;2022-08-04T02:20:57;23.40;81.60
40516;DHT22;26216;53.724;9.898;2022-08-04T02:23:33;23.30;81.30
40516;DHT22;26216;53.724;9.898;2022-08-04T02:26:12;23.30;81.10
40516;DHT22;26216;53.724;9.898;2022-08-04T02:31:22;23.30;81.40
40516;DHT22;26216;53.724;9.898;2022-08-04T02:36:35;23.20;81.60
40516;DHT22;26216;53.724;9.898;2022-08-04T02:39:03;23.20;81.80
40516;DHT22;26216;53.724;9.898;2022-08-04T02:41:31;23.20;81.70
40516;DHT22;26216;53.724;9.898;2022-08-04T02:43:59;23.20;82.20
40516;DHT22;26216;53.724;9.898;2022-08-04T02:46:26;23.10;81.90
40516;DHT22;26216;53.724;9.898;2022-08-04T02:48:53;23.10;81.80
40516;DHT22;26216;53.724;9.898;2022-08-04T02:51:23;23.10;82.10
40516;DHT22;26216;53.724;9.898;2022-08-04T02:53:52;23.10;82.20
40516;DHT22;26216;53.724;9.898;2022-08-04T02:56:19;23.10;82.40
40516;DHT22;26216;53.724;9.898;2022-08-04T02:58:50;23.00;82.30
40516;DHT22;26216;53.724;9.898;2022-08-04T03:01:17;23.00;82.60
40516;DHT22;26216;53.724;9.898;2022-08-04T03:24:01;22.90;83.60
40516;DHT22;26216;53.724;9.898;2022-08-04T03:52:42;22.70;82.90
40516;DHT22;26216;53.724;9.898;2022-08-04T04:03:53;22.60;83.50
40516;DHT22;26216;53.724;9.898;2022-08-04T04:09:40;22.50;83.40
40516;DHT22;26216;53.724;9.898;2022-08-04T04:16:20;22.50;83.30
40516;DHT22;26216;53.724;9.898;2022-08-04T04:18:37;22.50;84.30
40516;DHT22;26216;53.724;9.898;2022-08-04T04:21:42;22.50;84.30
40516;DHT22;26216;53.724;9.898;2022-08-04T04:24:26;22.50;84.80
40516;DHT22;26216;53.724;9.898;2022-08-04T04:27:18;22.40;84.20
40516;DHT22;26216;53.724;9.898;2022-08-04T04:30:06;22.40;85.30
40516;DHT22;26216;53.724;9.898;2022-08-04T04:33:02;22.50;85.50
40516;DHT22;26216;53.724;9.898;2022-08-04T04:38:29;22.50;85.70
40516;DHT22;26216;53.724;9.898;2022-08-04T04:49:50;22.60;87.00
40516;DHT22;26216;53.724;9.898;2022-08-04T04:52:35;22.70;86.80
40516;DHT22;26216;53.724;9.898;2022-08-04T04:57:40;22.90;86.80
40516;DHT22;26216;53.724;9.898;2022-08-04T05:00:08;23.00;86.60
40516;DHT22;26216;53.724;9.898;2022-08-04T05:11:05;23.40;86.80
40516;DHT22;26216;53.724;9.898;2022-08-04T05:13:41;23.50;87.00
40516;DHT22;26216;53.724;9.898;2022-08-04T05:16:19;23.60;86.50
40516;DHT22;26216;53.724;9.898;2022-08-04T05:18:53;23.70;86.70
40516;DHT22;26216;53.724;9.898;2022-08-04T05:21:32;23.90;86.70
40516;DHT22;26216;53.724;9.898;2022-08-04T05:24:05;24.00;86.80
40516;DHT22;26216;53.724;9.898;2022-08-04T05:26:38;24.10;86.20
40516;DHT22;26216;53.724;9.898;2022-08-04T05:29:08;24.30;86.30
40516;DHT22;26216;53.724;9.898;2022-08-04T05:31:41;24.40;86.20
40516;DHT22;26216;53.724;9.898;2022-08-04T05:34:11;24.50;85.90
40516;DHT22;26216;53.724;9.898;2022-08-04T05:36:59;24.60;85.70
40516;DHT22;26216;53.724;9.898;2022-08-04T05:39:32;24.80;85.50
40516;DHT22;26216;53.724;9.898;2022-08-04T05:42:01;24.90;85.40
40516;DHT22;26216;53.724;9.898;2022-08-04T05:44:29;25.10;85.40
40516;DHT22;26216;53.724;9.898;2022-08-04T05:46:57;25.20;85.20
40516;DHT22;26216;53.724;9.898;2022-08-04T05:49:27;25.30;84.70
40516;DHT22;26216;53.724;9.898;2022-08-04T05:51:58;25.50;84.80
40516;DHT22;26216;53.724;9.898;2022-08-04T05:54:25;25.60;84.70
40516;DHT22;26216;53.724;9.898;2022-08-04T05:56:53;25.80;84.50
40516;DHT22;26216;53.724;9.898;2022-08-04T05:59:21;25.90;84.40
40516;DHT22;26216;53.724;9.898;2022-08-04T06:01:51;26.00;84.10
40516;DHT22;26216;53.724;9.898;2022-08-04T06:04:18;26.20;83.70
40516;DHT22;26216;53.724;9.898;2022-08-04T06:06:47;26.30;83.30
40516;DHT22;26216;53.724;9.898;2022-08-04T06:09:13;26.40;83.10
40516;DHT22;26216;53.724;9.898;2022-08-04T06:11:40;26.60;82.90
40516;DHT22;26216;53.724;9.898;2022-08-04T06:14:08;26.60;82.50
40516;DHT22;26216;53.724;9.898;2022-08-04T06:16:40;26.70;82.20
40516;DHT22;26216;53.724;9.898;2022-08-04T06:19:08;26.90;82.10
40516;DHT22;26216;53.724;9.898;2022-08-04T06:21:43;26.90;82.10
40516;DHT22;26216;53.724;9.898;2022-08-04T06:24:13;27.00;81.90
40516;DHT22;26216;53.724;9.898;2022-08-04T06:26:41;27.20;81.90
40516;DHT22;26216;53.724;9.898;2022-08-04T06:29:09;27.30;81.80
40516;DHT22;26216;53.724;9.898;2022-08-04T06:31:46;27.30;81.60
40516;DHT22;26216;53.724;9.898;2022-08-04T06:34:24;27.50;81.40
40516;DHT22;26216;53.724;9.898;2022-08-04T06:36:51;27.60;80.70
40516;DHT22;26216;53.724;9.898;2022-08-04T06:39:20;27.70;81.00
40516;DHT22;26216;53.724;9.898;2022-08-04T06:41:49;27.80;81.10
40516;DHT22;26216;53.724;9.898;2022-08-04T06:44:16;27.90;80.90
40516;DHT22;26216;53.724;9.898;2022-08-04T06:46:43;28.00;80.40
40516;DHT22;26216;53.724;9.898;2022-08-04T06:49:10;28.10;80.60
40516;DHT22;26216;53.724;9.898;2022-08-04T06:51:37;28.20;80.20
40516;DHT22;26216;53.724;9.898;2022-08-04T06:54:04;28.30;80.10
40516;DHT22;26216;53.724;9.898;2022-08-04T06:56:33;28.40;79.70
40516;DHT22;26216;53.724;9.898;2022-08-04T06:59:01;28.60;79.70
40516;DHT22;26216;53.724;9.898;2022-08-04T07:01:28;28.70;79.20
40516;DHT22;26216;53.724;9.898;2022-08-04T07:03:55;28.80;78.90
40516;DHT22;26216;53.724;9.898;2022-08-04T07:06:22;28.90;78.30
40516;DHT22;26216;53.724;9.898;2022-08-04T07:08:49;29.00;77.90
40516;DHT22;26216;53.724;9.898;2022-08-04T07:11:15;29.10;78.00
40516;DHT22;26216;53.724;9.898;2022-08-04T07:13:42;29.20;77.60
40516;DHT22;26216;53.724;9.898;2022-08-04T07:16:12;29.30;77.60
40516;DHT22;26216;53.724;9.898;2022-08-04T07:18:39;29.40;77.20
40516;DHT22;26216;53.724;9.898;2022-08-04T07:21:05;29.50;76.80
40516;DHT22;26216;53.724;9.898;2022-08-04T07:23:32;29.70;76.80
40516;DHT22;26216;53.724;9.898;2022-08-04T07:25:58;29.80;76.40
40516;DHT22;26216;53.724;9.898;2022-08-04T07:28:27;29.90;76.20
40516;DHT22;26216;53.724;9.898;2022-08-04T07:30:55;30.00;76.10
40516;DHT22;26216;53.724;9.898;2022-08-04T07:33:21;30.10;75.90
40516;DHT22;26216;53.724;9.898;2022-08-04T07:35:57;30.20;75.90
40516;DHT22;26216;53.724;9.898;2022-08-04T07:38:23;30.30;75.20
40516;DHT22;26216;53.724;9.898;2022-08-04T07:40:49;30.40;76.30
40516;DHT22;26216;53.724;9.898;2022-08-04T07:43:16;30.60;75.70
40516;DHT22;26216;53.724;9.898;2022-08-04T07:45:45;30.70;75.30
40516;DHT22;26216;53.724;9.898;2022-08-04T07:48:11;30.90;73.30
40516;DHT22;26216;53.724;9.898;2022-08-04T07:50:41;31.00;73.40
40516;DHT22;26216;53.724;9.898;2022-08-04T07:53:07;31.10;72.50
40516;DHT22;26216;53.724;9.898;2022-08-04T07:55:33;31.20;73.20
40516;DHT22;26216;53.724;9.898;2022-08-04T07:57:59;31.40;72.70
40516;DHT22;26216;53.724;9.898;2022-08-04T08:00:25;31.50;72.40
40516;DHT22;26216;53.724;9.898;2022-08-04T08:02:54;31.60;72.20
40516;DHT22;26216;53.724;9.898;2022-08-04T08:05:21;31.80;72.00
40516;DHT22;26216;53.724;9.898;2022-08-04T08:07:48;31.90;72.10
40516;DHT22;26216;53.724;9.898;2022-08-04T08:10:18;32.00;70.50
40516;DHT22;26216;53.724;9.898;2022-08-04T08:12:44;32.10;71.20
40516;DHT22;26216;53.724;9.898;2022-08-04T08:15:11;32.30;70.90
40516;DHT22;26216;53.724;9.898;2022-08-04T08:17:38;32.30;70.70
40516;DHT22;26216;53.724;9.898;2022-08-04T08:20:06;32.50;70.30
40516;DHT22;26216;53.724;9.898;2022-08-04T08:22:32;32.50;70.00
40516;DHT22;26216;53.724;9.898;2022-08-04T08:24:58;32.70;69.80
40516;DHT22;26216;53.724;9.898;2022-08-04T08:27:25;32.80;69.80
40516;DHT22;26216;53.724;9.898;2022-08-04T08:29:51;33.00;68.40
40516;DHT22;26216;53.724;9.898;2022-08-04T08:32:17;33.00;67.80
40516;DHT22;26216;53.724;9.898;2022-08-04T08:34:44;33.10;66.30
40516;DHT22;26216;53.724;9.898;2022-08-04T08:37:35;33.30;67.00
40516;DHT22;26216;53.724;9.898;2022-08-04T08:59:28;33.90;63.80
40516;DHT22;26216;53.724;9.898;2022-08-04T09:10:52;34.30;62.60
40516;DHT22;26216;53.724;9.898;2022-08-04T09:13:41;34.40;62.70
40516;DHT22;26216;53.724;9.898;2022-08-04T09:16:18;34.50;61.50
40516;DHT22;26216;53.724;9.898;2022-08-04T09:27:51;35.10;62.40
40516;DHT22;26216;53.724;9.898;2022-08-04T09:30:22;35.20;59.10
40516;DHT22;26216;53.724;9.898;2022-08-04T09:33:12;35.30;61.20
40516;DHT22;26216;53.724;9.898;2022-08-04T09:38:34;35.60;58.00
40516;DHT22;26216;53.724;9.898;2022-08-04T09:41:32;35.70;59.70
40516;DHT22;26216;53.724;9.898;2022-08-04T09:44:27;35.80;58.50
40516;DHT22;26216;53.724;9.898;2022-08-04T09:47:10;36.00;58.10
40516;DHT22;26216;53.724;9.898;2022-08-04T09:50:01;36.10;58.40
40516;DHT22;26216;53.724;9.898;2022-08-04T10:00:36;36.50;55.50
40516;DHT22;26216;53.724;9.898;2022-08-04T10:03:05;36.60;55.50
40516;DHT22;26216;53.724;9.898;2022-08-04T10:14:05;36.80;52.90
40516;DHT22;26216;53.724;9.898;2022-08-04T10:19:28;37.00;52.10
40516;DHT22;26216;53.724;9.898;2022-08-04T10:27:50;37.30;52.40
40516;DHT22;26216;53.724;9.898;2022-08-04T10:30:18;37.40;50.70
40516;DHT22;26216;53.724;9.898;2022-08-04T10:35:50;37.50;51.50
40516;DHT22;26216;53.724;9.898;2022-08-04T10:38:30;37.60;51.50
40516;DHT22;26216;53.724;9.898;2022-08-04T10:41:08;37.60;51.80
40516;DHT22;26216;53.724;9.898;2022-08-04T10:46:34;37.80;50.10
40516;DHT22;26216;53.724;9.898;2022-08-04T10:49:13;37.80;49.20
40516;DHT22;26216;53.724;9.898;2022-08-04T10:51:44;37.80;49.60
40516;DHT22;26216;53.724;9.898;2022-08-04T10:54:16;37.90;49.90
40516;DHT22;26216;53.724;9.898;2022-08-04T10:56:52;37.80;49.90
40516;DHT22;26216;53.724;9.898;2022-08-04T10:59:34;37.80;50.30
40516;DHT22;26216;53.724;9.898;2022-08-04T11:08:24;38.10;50.10
40516;DHT22;26216;53.724;9.898;2022-08-04T11:11:07;38.20;48.60
40516;DHT22;26216;53.724;9.898;2022-08-04T11:13:46;38.30;46.30
40516;DHT22;26216;53.724;9.898;2022-08-04T11:16:23;38.40;47.40
40516;DHT22;26216;53.724;9.898;2022-08-04T11:21:38;38.40;47.60
40516;DHT22;26216;53.724;9.898;2022-08-04T11:27:12;38.50;45.70
40516;DHT22;26216;53.724;9.898;2022-08-04T11:30:01;38.40;46.80
40516;DHT22;26216;53.724;9.898;2022-08-04T11:32:53;38.40;46.80
40516;DHT22;26216;53.724;9.898;2022-08-04T11:35:41;38.40;47.30
40516;DHT22;26216;53.724;9.898;2022-08-04T11:38:26;38.40;47.70
40516;DHT22;26216;53.724;9.898;2022-08-04T11:41:04;38.40;48.00
40516;DHT22;26216;53.724;9.898;2022-08-04T11:44:05;38.40;47.40
40516;DHT22;26216;53.724;9.898;2022-08-04T11:46:43;38.40;47.70
40516;DHT22;26216;53.724;9.898;2022-08-04T11:49:32;38.40;48.30
40516;DHT22;26216;53.724;9.898;2022-08-04T11:52:00;38.50;47.40
40516;DHT22;26216;53.724;9.898;2022-08-04T11:54:26;38.60;48.60
40516;DHT22;26216;53.724;9.898;2022-08-04T11:56:53;38.70;47.70
40516;DHT22;26216;53.724;9.898;2022-08-04T11:59:21;38.80;47.00
40516;DHT22;26216;53.724;9.898;2022-08-04T12:04:59;39.10;46.20
40516;DHT22;26216;53.724;9.898;2022-08-04T12:07:42;39.10;45.80
40516;DHT22;26216;53.724;9.898;2022-08-04T12:20:22;39.60;46.10
40516;DHT22;26216;53.724;9.898;2022-08-04T12:22:50;39.70;45.40
40516;DHT22;26216;53.724;9.898;2022-08-04T12:25:30;39.70;44.30
40516;DHT22;26216;53.724;9.898;2022-08-04T12:28:04;39.80;44.30
40516;DHT22;26216;53.724;9.898;2022-08-04T12:30:36;39.90;44.60
40516;DHT22;26216;53.724;9.898;2022-08-04T12:33:06;39.90;43.80
40516;DHT22;26216;53.724;9.898;2022-08-04T12:35:50;40.00;42.80
40516;DHT22;26216;53.724;9.898;2022-08-04T12:38:20;40.10;41.90
40516;DHT22;26216;53.724;9.898;2022-08-04T12:40:50;40.10;42.50
40516;DHT22;26216;53.724;9.898;2022-08-04T12:43:38;40.10;42.70
40516;DHT22;26216;53.724;9.898;2022-08-04T12:46:08;40.10;42.20
40516;DHT22;26216;53.724;9.898;2022-08-04T12:48:36;40.10;42.20
40516;DHT22;26216;53.724;9.898;2022-08-04T12:51:06;40.00;42.20
40516;DHT22;26216;53.724;9.898;2022-08-04T12:53:39;40.00;41.10
40516;DHT22;26216;53.724;9.898;2022-08-04T12:56:08;39.90;41.60
40516;DHT22;26216;53.724;9.898;2022-08-04T12:58:40;39.90;42.40
40516;DHT22;26216;53.724;9.898;2022-08-04T13:01:27;39.90;42.50
40516;DHT22;26216;53.724;9.898;2022-08-04T13:03:59;39.80;42.60
40516;DHT22;26216;53.724;9.898;2022-08-04T13:06:33;39.80;42.40
40516;DHT22;26216;53.724;9.898;2022-08-04T13:09:06;39.70;40.60
40516;DHT22;26216;53.724;9.898;2022-08-04T13:11:45;39.70;41.80
40516;DHT22;26216;53.724;9.898;2022-08-04T13:14:12;39.60;40.30
40516;DHT22;26216;53.724;9.898;2022-08-04T13:16:39;39.60;42.70
40516;DHT22;26216;53.724;9.898;2022-08-04T13:19:07;39.60;42.50
40516;DHT22;26216;53.724;9.898;2022-08-04T13:21:34;39.60;42.00
40516;DHT22;26216;53.724;9.898;2022-08-04T13:24:09;39.60;40.70
40516;DHT22;26216;53.724;9.898;2022-08-04T13:26:36;39.60;41.10
40516;DHT22;26216;53.724;9.898;2022-08-04T13:29:05;39.60;41.80
40516;DHT22;26216;53.724;9.898;2022-08-04T13:31:33;39.60;41.70
40516;DHT22;26216;53.724;9.898;2022-08-04T13:34:05;39.60;42.00
40516;DHT22;26216;53.724;9.898;2022-08-04T13:36:34;39.50;40.90
40516;DHT22;26216;53.724;9.898;2022-08-04T13:39:19;39.40;40.80
40516;DHT22;26216;53.724;9.898;2022-08-04T13:41:49;39.30;41.00
40516;DHT22;26216;53.724;9.898;2022-08-04T13:44:20;39.40;41.40
40516;DHT22;26216;53.724;9.898;2022-08-04T13:46:51;39.30;41.70
40516;DHT22;26216;53.724;9.898;2022-08-04T13:49:18;39.40;41.50
40516;DHT22;26216;53.724;9.898;2022-08-04T13:52:03;39.30;41.60
40516;DHT22;26216;53.724;9.898;2022-08-04T13:54:39;39.30;41.10
40516;DHT22;26216;53.724;9.898;2022-08-04T13:59:38;39.30;42.00
40516;DHT22;26216;53.724;9.898;2022-08-04T14:02:08;39.30;42.10
40516;DHT22;26216;53.724;9.898;2022-08-04T14:04:39;39.30;41.00
40516;DHT22;26216;53.724;9.898;2022-08-04T14:07:14;39.20;40.60
40516;DHT22;26216;53.724;9.898;2022-08-04T14:09:41;39.10;41.10
40516;DHT22;26216;53.724;9.898;2022-08-04T14:12:12;39.10;41.40
40516;DHT22;26216;53.724;9.898;2022-08-04T14:14:50;39.00;41.40
40516;DHT22;26216;53.724;9.898;2022-08-04T14:17:22;38.80;41.40
40516;DHT22;26216;53.724;9.898;2022-08-04T14:19:59;38.80;41.70
40516;DHT22;26216;53.724;9.898;2022-08-04T14:25:14;38.30;46.20
40516;DHT22;26216;53.724;9.898;2022-08-04T14:27:48;38.10;47.10
40516;DHT22;26216;53.724;9.898;2022-08-04T14:35:21;37.40;48.90
40516;DHT22;26216;53.724;9.898;2022-08-04T14:37:55;37.20;50.10
40516;DHT22;26216;53.724;9.898;2022-08-04T14:40:24;37.00;51.20
40516;DHT22;26216;53.724;9.898;2022-08-04T14:42:50;36.80;51.30
40516;DHT22;26216;53.724;9.898;2022-08-04T14:45:17;36.60;50.90
40516;DHT22;26216;53.724;9.898;2022-08-04T14:47:45;36.50;52.30
40516;DHT22;26216;53.724;9.898;2022-08-04T14:50:12;36.20;52.40
40516;DHT22;26216;53.724;9.898;2022-08-04T14:52:39;36.00;52.20
40516;DHT22;26216;53.724;9.898;2022-08-04T14:55:23;35.80;53.20
40516;DHT22;26216;53.724;9.898;2022-08-04T14:57:50;35.50;54.60
40516;DHT22;26216;53.724;9.898;2022-08-04T15:00:28;35.30;55.00
40516;DHT22;26216;53.724;9.898;2022-08-04T15:02:59;35.10;55.50
40516;DHT22;26216;53.724;9.898;2022-08-04T15:05:26;34.90;55.80
40516;DHT22;26216;53.724;9.898;2022-08-04T15:07:55;34.50;56.20
40516;DHT22;26216;53.724;9.898;2022-08-04T15:10:22;34.30;56.30
40516;DHT22;26216;53.724;9.898;2022-08-04T15:12:48;34.10;56.50
40516;DHT22;26216;53.724;9.898;2022-08-04T15:15:14;33.90;57.10
40516;DHT22;26216;53.724;9.898;2022-08-04T15:17:41;33.50;57.10
40516;DHT22;26216;53.724;9.898;2022-08-04T15:20:08;33.30;56.80
40516;DHT22;26216;53.724;9.898;2022-08-04T15:22:34;33.10;57.30
40516;DHT22;26216;53.724;9.898;2022-08-04T15:25:00;32.90;57.10
40516;DHT22;26216;53.724;9.898;2022-08-04T15:27:29;32.70;57.00
40516;DHT22;26216;53.724;9.898;2022-08-04T15:30:00;32.40;56.90
40516;DHT22;26216;53.724;9.898;2022-08-04T15:32:33;32.20;56.80
40516;DHT22;26216;53.724;9.898;2022-08-04T15:35:26;32.10;57.70
40516;DHT22;26216;53.724;9.898;2022-08-04T15:46:09;31.40;58.30
40516;DHT22;26216;53.724;9.898;2022-08-04T15:48:36;31.20;57.70
40516;DHT22;26216;53.724;9.898;2022-08-04T15:51:25;30.90;57.50
40516;DHT22;26216;53.724;9.898;2022-08-04T15:58:52;30.10;58.70
40516;DHT22;26216;53.724;9.898;2022-08-04T16:01:20;29.90;58.60
40516;DHT22;26216;53.724;9.898;2022-08-04T16:03:50;29.70;58.80
40516;DHT22;26216;53.724;9.898;2022-08-04T16:19:09;28.80;66.50
40516;DHT22;26216;53.724;9.898;2022-08-04T16:21:49;28.60;65.30
40516;DHT22;26216;53.724;9.898;2022-08-04T16:24:28;28.40;67.70
40516;DHT22;26216;53.724;9.898;2022-08-04T16:27:05;28.20;67.50
40516;DHT22;26216;53.724;9.898;2022-08-04T16:29:37;28.10;68.10
40516;DHT22;26216;53.724;9.898;2022-08-04T16:37:41;27.90;69.60
40516;DHT22;26216;53.724;9.898;2022-08-04T16:42:57;27.90;69.20
40516;DHT22;26216;53.724;9.898;2022-08-04T16:45:45;27.90;68.90
40516;DHT22;26216;53.724;9.898;2022-08-04T16:48:12;27.80;68.70
40516;DHT22;26216;53.724;9.898;2022-08-04T16:50:59;27.90;68.50
40516;DHT22;26216;53.724;9.898;2022-08-04T16:53:28;27.90;70.30
40516;DHT22;26216;53.724;9.898;2022-08-04T16:55:57;27.90;69.00
40516;DHT22;26216;53.724;9.898;2022-08-04T16:58:29;27.80;68.20
40516;DHT22;26216;53.724;9.898;2022-08-04T17:00:56;27.90;69.20
40516;DHT22;26216;53.724;9.898;2022-08-04T17:03:23;27.90;69.10
40516;DHT22;26216;53.724;9.898;2022-08-04T17:05:49;27.90;69.30
40516;DHT22;26216;53.724;9.898;2022-08-04T17:08:15;27.90;69.40
40516;DHT22;26216;53.724;9.898;2022-08-04T17:10:46;27.90;69.70
40516;DHT22;26216;53.724;9.898;2022-08-04T17:15:55;28.00;70.20
40516;DHT22;26216;53.724;9.898;2022-08-04T17:18:28;28.00;69.80
40516;DHT22;26216;53.724;9.898;2022-08-04T17:20:58;28.00;70.40
40516;DHT22;26216;53.724;9.898;2022-08-04T17:23:46;28.10;70.70
40516;DHT22;26216;53.724;9.898;2022-08-04T17:26:16;28.10;72.10
40516;DHT22;26216;53.724;9.898;2022-08-04T17:28:47;28.30;72.00
40516;DHT22;26216;53.724;9.898;2022-08-04T17:31:14;28.70;72.90
40516;DHT22;26216;53.724;9.898;2022-08-04T17:33:45;29.10;73.40
40516;DHT22;26216;53.724;9.898;2022-08-04T17:36:11;29.50;72.00
40516;DHT22;26216;53.724;9.898;2022-08-04T17:41:09;30.40;69.70
40516;DHT22;26216;53.724;9.898;2022-08-04T17:43:50;30.80;68.90
40516;DHT22;26216;53.724;9.898;2022-08-04T17:54:39;32.10;65.50
40516;DHT22;26216;53.724;9.898;2022-08-04T17:57:18;32.20;63.80
40516;DHT22;26216;53.724;9.898;2022-08-04T17:59:46;32.20;64.30
40516;DHT22;26216;53.724;9.898;2022-08-04T18:02:27;32.20;63.70
40516;DHT22;26216;53.724;9.898;2022-08-04T18:04:53;32.30;63.90
40516;DHT22;26216;53.724;9.898;2022-08-04T18:07:23;32.30;63.80
40516;DHT22;26216;53.724;9.898;2022-08-04T18:09:58;32.40;64.90
40516;DHT22;26216;53.724;9.898;2022-08-04T18:12:33;32.50;64.10
40516;DHT22;26216;53.724;9.898;2022-08-04T18:15:08;32.60;63.40
40516;DHT22;26216;53.724;9.898;2022-08-04T18:17:44;32.80;63.30
40516;DHT22;26216;53.724;9.898;2022-08-04T18:20:13;32.90;62.60
40516;DHT22;26216;53.724;9.898;2022-08-04T18:22:41;32.90;62.00
40516;DHT22;26216;53.724;9.898;2022-08-04T18:25:17;33.10;62.30
40516;DHT22;26216;53.724;9.898;2022-08-04T18:27:54;33.10;61.20
40516;DHT22;26216;53.724;9.898;2022-08-04T18:30:25;33.00;60.60
40516;DHT22;26216;53.724;9.898;2022-08-04T18:32:52;32.90;60.60
40516;DHT22;26216;53.724;9.898;2022-08-04T18:35:20;32.70;60.30
40516;DHT22;26216;53.724;9.898;2022-08-04T18:37:46;32.50;60.20
40516;DHT22;26216;53.724;9.898;2022-08-04T18:40:13;32.30;60.30
40516;DHT22;26216;53.724;9.898;2022-08-04T18:42:39;32.00;60.60
40516;DHT22;26216;53.724;9.898;2022-08-04T18:45:05;31.70;60.90
40516;DHT22;26216;53.724;9.898;2022-08-04T18:47:31;31.50;61.20
40516;DHT22;26216;53.724;9.898;2022-08-04T18:49:58;31.30;61.50
40516;DHT22;26216;53.724;9.898;2022-08-04T18:52:24;31.00;61.90
40516;DHT22;26216;53.724;9.898;2022-08-04T18:54:50;30.80;62.00
40516;DHT22;26216;53.724;9.898;2022-08-04T18:57:24;30.60;61.90
40516;DHT22;26216;53.724;9.898;2022-08-04T18:59:50;30.30;62.50
40516;DHT22;26216;53.724;9.898;2022-08-04T19:02:20;30.10;62.40
40516;DHT22;26216;53.724;9.898;2022-08-04T19:04:46;29.90;62.50
40516;DHT22;26216;53.724;9.898;2022-08-04T19:07:14;29.70;62.70
40516;DHT22;26216;53.724;9.898;2022-08-04T19:09:41;29.50;63.40
40516;DHT22;26216;53.724;9.898;2022-08-04T19:12:07;29.40;63.30
40516;DHT22;26216;53.724;9.898;2022-08-04T19:14:33;29.20;63.40
40516;DHT22;26216;53.724;9.898;2022-08-04T19:16:59;29.00;63.60
40516;DHT22;26216;53.724;9.898;2022-08-04T19:19:25;28.80;63.90
40516;DHT22;26216;53.724;9.898;2022-08-04T19:21:51;28.70;64.10
40516;DHT22;26216;53.724;9.898;2022-08-04T19:24:17;28.50;64.40
40516;DHT22;26216;53.724;9.898;2022-08-04T19:26:43;28.40;64.50
40516;DHT22;26216;53.724;9.898;2022-08-04T19:29:09;28.20;64.80
40516;DHT22;26216;53.724;9.898;2022-08-04T19:31:35;28.10;65.10
40516;DHT22;26216;53.724;9.898;2022-08-04T19:34:01;28.00;65.40
40516;DHT22;26216;53.724;9.898;2022-08-04T19:36:28;27.80;65.80
40516;DHT22;26216;53.724;9.898;2022-08-04T19:38:56;27.70;66.10
40516;DHT22;26216;53.724;9.898;2022-08-04T19:41:22;27.60;66.20
40516;DHT22;26216;53.724;9.898;2022-08-04T19:43:48;27.50;66.20
40516;DHT22;26216;53.724;9.898;2022-08-04T19:46:14;27.30;66.30
40516;DHT22;26216;53.724;9.898;2022-08-04T19:48:41;27.20;66.60
40516;DHT22;26216;53.724;9.898;2022-08-04T19:51:09;27.10;66.90
40516;DHT22;26216;53.724;9.898;2022-08-04T19:53:35;27.00;67.00
40516;DHT22;26216;53.724;9.898;2022-08-04T19:56:01;26.80;67.20
40516;DHT22;26216;53.724;9.898;2022-08-04T19:58:26;26.70;67.50
40516;DHT22;26216;53.724;9.898;2022-08-04T20:00:53;26.60;67.60
40516;DHT22;26216;53.724;9.898;2022-08-04T20:03:19;26.50;67.80
40516;DHT22;26216;53.724;9.898;2022-08-04T20:05:45;26.40;68.00
40516;DHT22;26216;53.724;9.898;2022-08-04T20:08:11;26.30;68.20
40516;DHT22;26216;53.724;9.898;2022-08-04T20:10:37;26.20;68.40
40516;DHT22;26216;53.724;9.898;2022-08-04T20:13:04;26.20;69.20
40516;DHT22;26216;53.724;9.898;2022-08-04T20:15:30;26.10;69.20
40516;DHT22;26216;53.724;9.898;2022-08-04T20:17:56;26.00;68.90
40516;DHT22;26216;53.724;9.898;2022-08-04T20:20:22;25.90;69.20
40516;DHT22;26216;53.724;9.898;2022-08-04T20:22:48;25.80;69.30
40516;DHT22;26216;53.724;9.898;2022-08-04T20:25:14;25.80;69.40
40516;DHT22;26216;53.724;9.898;2022-08-04T20:27:40;25.70;69.50
40516;DHT22;26216;53.724;9.898;2022-08-04T20:30:06;25.60;69.80
40516;DHT22;26216;53.724;9.898;2022-08-04T20:32:32;25.50;69.80
40516;DHT22;26216;53.724;9.898;2022-08-04T20:34:58;25.50;70.40
40516;DHT22;26216;53.724;9.898;2022-08-04T20:37:25;25.40;70.10
40516;DHT22;26216;53.724;9.898;2022-08-04T20:39:56;25.30;70.40
40516;DHT22;26216;53.724;9.898;2022-08-04T20:42:26;25.20;70.40